Time;durP1;ratioP1;P1;durP2;ratioP2;P2;SDS_P1;SDS_P2;PMS_P1;PMS_P2;Temp;Humidity;BMP_temperature;BMP_pressure;BME280_temperature;BME280_humidity;BME280_pressure;Samples;Min_cycle;Max_cycle;Signal;HPM_P1;HPM_P2
2023/01/16 00:01:52;;;;;;;10.07;6.00;;;;;;;5.12;100.00;99327.72;5108798;27;20099;-73
2023/01/16 00:04:17;;;;;;;14.10;6.13;;;;;;;5.23;100.00;99328.47;5113784;27;20023;-73
2023/01/16 00:06:43;;;;;;;11.73;6.82;;;;;;;5.16;100.00;99339.00;5104724;27;20114;-72
2023/01/16 00:09:08;;;;;;;18.25;6.57;;;;;;;5.14;100.00;99320.34;5111854;27;20037;-73
2023/01/16 00:11:33;;;;;;;12.85;6.35;;;;;;;5.28;100.00;99324.28;5115503;27;20114;-73
2023/01/16 00:13:59;;;;;;;13.88;5.85;;;;;;;5.31;100.00;99320.44;5132988;27;20038;-73
2023/01/16 00:16:28;;;;;;;17.38;5.97;;;;;;;5.33;100.00;99319.25;5105729;27;20031;-73
2023/01/16 00:18:54;;;;;;;14.65;6.40;;;;;;;5.39;100.00;99315.09;5130661;27;20032;-73
2023/01/16 00:21:20;;;;;;;14.95;6.47;;;;;;;5.45;100.00;99311.75;5107743;27;20024;-73
2023/01/16 00:23:46;;;;;;;14.13;6.70;;;;;;;5.36;100.00;99307.38;5113419;27;20038;-73
2023/01/16 00:26:12;;;;;;;14.50;7.63;;;;;;;5.32;100.00;99303.31;5102401;28;20031;-72
2023/01/16 00:28:38;;;;;;;15.52;7.25;;;;;;;5.17;100.00;99313.84;5110366;27;20019;-73
2023/01/16 00:31:07;;;;;;;18.73;7.85;;;;;;;5.15;100.00;99302.41;5111387;27;20040;-73
2023/01/16 00:33:33;;;;;;;16.20;7.15;;;;;;;5.30;100.00;99294.59;5116177;27;20031;-73
2023/01/16 00:36:00;;;;;;;15.20;7.85;;;;;;;5.25;100.00;99310.34;5123761;27;20075;-73
2023/01/16 00:38:25;;;;;;;15.57;6.82;;;;;;;5.13;100.00;99291.00;5127017;27;20066;-73
2023/01/16 00:40:51;;;;;;;14.70;6.75;;;;;;;5.35;100.00;99311.06;5118669;27;20046;-73
2023/01/16 00:43:16;;;;;;;26.10;7.30;;;;;;;5.23;100.00;99302.47;5119039;27;20027;-73
2023/01/16 00:45:42;;;;;;;21.23;7.43;;;;;;;5.19;100.00;99295.72;5102293;27;20062;-72
2023/01/16 00:48:08;;;;;;;18.55;6.32;;;;;;;5.39;100.00;99296.28;5116463;27;20055;-73
2023/01/16 00:50:33;;;;;;;17.05;6.50;;;;;;;5.39;100.00;99296.28;5121946;27;20031;-72
2023/01/16 00:52:59;;;;;;;21.50;6.13;;;;;;;5.37;100.00;99276.84;5112481;27;20020;-72
2023/01/16 00:55:24;;;;;;;16.27;5.20;;;;;;;5.21;100.00;99299.09;5121554;27;20072;-72
2023/01/16 00:57:50;;;;;;;13.43;4.85;;;;;;;5.29;100.00;99290.25;5105496;28;20019;-74
2023/01/16 01:00:19;;;;;;;10.82;5.10;;;;;;;5.41;100.00;99288.91;5118471;27;20027;-73
2023/01/16 01:02:45;;;;;;;15.57;4.93;;;;;;;5.46;100.00;99291.94;5117120;27;20388;-73
2023/01/16 01:05:11;;;;;;;12.57;4.55;;;;;;;5.36;100.00;99281.38;5116068;28;20060;-73
2023/01/16 01:07:36;;;;;;;15.57;4.45;;;;;;;5.38;100.00;99283.88;5141956;27;20075;-73
2023/01/16 01:10:02;;;;;;;12.50;5.13;;;;;;;5.25;100.00;99278.97;5112491;27;20034;-73
2023/01/16 01:12:28;;;;;;;17.05;4.50;;;;;;;5.42;100.00;99279.88;5127831;27;20034;-73
2023/01/16 01:14:53;;;;;;;15.57;5.20;;;;;;;5.33;100.00;99278.16;5110184;27;20030;-73
2023/01/16 01:17:18;;;;;;;18.98;4.35;;;;;;;5.50;100.00;99287.94;5110812;28;20034;-73
2023/01/16 01:19:44;;;;;;;17.17;5.05;;;;;;;5.35;100.00;99278.88;5109677;27;20023;-72
2023/01/16 01:22:09;;;;;;;30.23;5.60;;;;;;;5.45;100.00;99279.53;5116770;28;20019;-75
2023/01/16 01:24:34;;;;;;;15.57;3.63;;;;;;;5.35;100.00;99273.50;5127732;27;20023;-72
2023/01/16 01:27:00;;;;;;;14.50;5.18;;;;;;;5.34;100.00;99277.16;5107753;27;20083;-72
2023/01/16 01:29:25;;;;;;;10.48;4.10;;;;;;;5.38;100.00;99283.88;5109996;27;20036;-73
2023/01/16 01:31:51;;;;;;;11.40;3.70;;;;;;;5.36;100.00;99275.16;5127173;27;20026;-72
2023/01/16 01:34:16;;;;;;;19.50;4.90;;;;;;;5.35;100.00;99285.06;5120138;27;20031;-74
2023/01/16 01:36:41;;;;;;;20.05;4.15;;;;;;;5.41;100.00;99267.44;5125080;27;20184;-75
2023/01/16 01:39:07;;;;;;;18.52;5.47;;;;;;;5.35;100.00;99262.75;5123494;27;20045;-75
2023/01/16 01:41:33;;;;;;;15.80;4.38;;;;;;;5.40;100.00;99265.75;5121258;27;20019;-75
2023/01/16 01:43:58;;;;;;;11.55;4.45;;;;;;;5.33;100.00;99264.75;5112574;27;20425;-75
2023/01/16 01:46:41;;;;;;;14.25;4.25;;;;;;;5.48;100.00;99252.38;5126664;27;20042;-72
2023/01/16 01:49:19;;;;;;;13.98;3.55;;;;;;;5.47;100.00;99250.69;5123530;27;20099;-73
2023/01/16 01:51:45;;;;;;;19.95;4.13;;;;;;;5.28;100.00;99245.59;5107842;27;20031;-72
2023/01/16 01:54:16;;;;;;;9.40;3.08;;;;;;;5.37;100.00;99239.28;5107013;27;20039;-72
2023/01/16 01:57:24;;;;;;;12.02;3.97;;;;;;;5.45;100.00;99225.88;5120989;27;20025;-72
2023/01/16 02:00:01;;;;;;;6.88;2.50;;;;;;;5.41;100.00;99219.13;5029527;28;20086;-72
2023/01/16 02:02:33;;;;;;;13.43;3.25;;;;;;;5.43;100.00;99217.16;5016458;28;20033;-72
2023/01/16 02:04:59;;;;;;;9.55;3.30;;;;;;;5.27;100.00;99233.19;5081246;27;20031;-73
2023/01/16 02:07:27;;;;;;;10.27;2.88;;;;;;;5.42;100.00;99215.47;5114133;27;20471;-72
2023/01/16 02:09:59;;;;;;;8.63;2.58;;;;;;;5.40;100.00;99212.09;5115536;27;20117;-75
2023/01/16 02:12:26;;;;;;;11.02;3.28;;;;;;;5.35;100.00;99214.47;5109397;27;20114;-73
2023/01/16 02:14:55;;;;;;;12.48;2.63;;;;;;;5.26;100.00;99210.06;5122155;27;20025;-73
2023/01/16 02:20:08;;;;;;;9.35;2.97;;;;;;;5.42;100.00;99210.94;5135591;27;20049;-72
2023/01/16 02:23:13;;;;;;;14.75;2.95;;;;;;;5.20;100.00;99205.34;5118764;27;20449;-72
2023/01/16 02:25:57;;;;;;;10.70;2.50;;;;;;;5.38;100.00;99192.66;5135305;27;20027;-72
2023/01/16 02:28:35;;;;;;;13.55;2.40;;;;;;;5.42;100.00;99194.00;5126045;27;20127;-72
2023/01/16 02:31:35;;;;;;;13.07;2.85;;;;;;;5.51;100.00;99201.03;5112958;27;20502;-73
2023/01/16 02:34:13;;;;;;;11.90;2.47;;;;;;;5.36;100.00;99194.66;5080045;27;20458;-73
2023/01/16 02:37:02;;;;;;;10.18;3.03;;;;;;;5.46;100.00;99181.91;5112656;27;20019;-73
2023/01/16 02:39:42;;;;;;;8.73;2.60;;;;;;;5.40;100.00;99190.63;5125948;27;20027;-73
2023/01/16 02:42:21;;;;;;;12.00;2.50;;;;;;;5.24;100.00;99182.56;5120720;27;20040;-73
2023/01/16 02:45:02;;;;;;;6.93;2.22;;;;;;;5.34;100.00;99188.59;5117645;27;20228;-74
2023/01/16 02:47:41;;;;;;;12.15;2.33;;;;;;;5.32;100.00;99177.22;5125808;27;20364;-73
2023/01/16 02:50:51;;;;;;;17.20;2.13;;;;;;;5.46;100.00;99173.84;5118488;27;20019;-73
2023/01/16 02:53:21;;;;;;;10.75;2.65;;;;;;;5.23;100.00;99162.13;5112237;27;20435;-73
2023/01/16 02:55:54;;;;;;;15.38;3.42;;;;;;;5.11;100.00;99173.16;5121214;27;20034;-73
2023/01/16 02:58:21;;;;;;;8.65;2.50;;;;;;;5.07;100.00;99179.00;5116136;27;20086;-73
2023/01/16 03:00:51;;;;;;;9.82;1.95;;;;;;;4.90;100.00;99170.09;5138050;27;20026;-73
2023/01/16 03:03:38;;;;;;;6.78;2.20;;;;;;;4.94;100.00;99162.56;5114292;27;20019;-73
2023/01/16 03:06:33;;;;;;;8.32;2.20;;;;;;;4.98;100.00;99163.91;5104776;27;20126;-73
2023/01/16 03:09:35;;;;;;;11.18;2.08;;;;;;;4.93;100.00;99161.72;5102457;28;20039;-73
2023/01/16 03:12:34;;;;;;;7.82;1.98;;;;;;;4.97;100.00;99157.72;5110576;27;20034;-73
2023/01/16 03:15:14;;;;;;;6.03;1.60;;;;;;;5.01;100.00;99151.00;5107649;27;20145;-73
2023/01/16 03:17:54;;;;;;;8.40;2.22;;;;;;;4.85;100.00;99142.94;5124023;27;20097;-73
2023/01/16 03:20:44;;;;;;;6.47;1.83;;;;;;;4.77;100.00;99134.88;5119990;27;20023;-73
2023/01/16 03:23:27;;;;;;;11.48;2.08;;;;;;;4.70;100.00;99139.22;5112135;27;20110;-73
2023/01/16 03:26:07;;;;;;;10.25;2.30;;;;;;;4.65;100.00;99130.81;5116258;27;20036;-73
2023/01/16 03:28:55;;;;;;;20.65;2.50;;;;;;;4.80;100.00;99115.78;5113006;27;20023;-73
2023/01/16 03:31:43;;;;;;;13.73;2.20;;;;;;;4.74;100.00;99119.09;5115799;27;20010;-73
2023/01/16 03:34:29;;;;;;;9.63;2.25;;;;;;;4.57;100.00;99113.72;5114151;27;20023;-73
2023/01/16 03:37:16;;;;;;;6.20;1.98;;;;;;;4.79;100.00;99109.56;5118063;27;20029;-72
2023/01/16 03:39:46;;;;;;;10.05;2.17;;;;;;;4.74;100.00;99108.38;5109794;22;20033;-73
2023/01/16 03:42:18;;;;;;;8.23;2.15;;;;;;;4.85;100.00;99105.41;5085538;28;20042;-74
2023/01/16 03:44:50;;;;;;;8.00;1.80;;;;;;;4.84;100.00;99098.38;5102780;28;20040;-75
2023/01/16 03:47:24;;;;;;;14.55;2.15;;;;;;;4.69;100.00;99094.63;5083218;28;20158;-76
2023/01/16 03:49:56;;;;;;;8.52;2.42;;;;;;;4.71;100.00;99092.66;5090835;28;20080;-76
2023/01/16 03:52:23;;;;;;;;;;;;;;;4.82;100.00;99084.28;5072653;28;20028;-76
2023/01/16 03:55:21;;;;;;;5.85;1.88;;;;;;;4.57;100.00;99081.56;5078483;28;19939;-75
2023/01/16 03:57:59;;;;;;;8.82;2.40;;;;;;;4.74;100.00;99085.09;5008806;28;20079;-74
2023/01/16 04:00:39;;;;;;;7.63;2.13;;;;;;;4.64;100.00;99071.03;5080103;28;20020;-74
2023/01/16 04:03:14;;;;;;;11.50;2.42;;;;;;;4.66;100.00;99074.38;5072695;28;20253;-74
2023/01/16 04:06:16;;;;;;;10.05;2.53;;;;;;;4.71;100.00;99076.56;5079610;28;20316;-76
2023/01/16 04:08:43;;;;;;;13.43;2.55;;;;;;;4.75;100.00;99072.53;5029803;28;20036;-74
2023/01/16 04:11:12;;;;;;;9.98;2.28;;;;;;;4.66;100.00;99069.00;5095006;28;20023;-75
2023/01/16 04:13:40;;;;;;;7.93;1.90;;;;;;;4.61;100.00;99072.16;5089377;28;20219;-75
2023/01/16 04:16:10;;;;;;;8.25;1.98;;;;;;;4.67;100.00;99065.31;5065676;28;20138;-75
2023/01/16 04:18:36;;;;;;;8.77;1.92;;;;;;;4.67;100.00;99059.13;5074505;28;20016;-75
2023/01/16 04:21:06;;;;;;;9.85;2.65;;;;;;;4.65;100.00;99061.13;5093446;28;20019;-75
2023/01/16 04:23:31;;;;;;;21.30;2.45;;;;;;;4.73;100.00;99058.47;5101275;28;20023;-75
2023/01/16 04:25:57;;;;;;;11.82;1.80;;;;;;;4.65;100.00;99055.78;5090840;28;20020;-75
2023/01/16 04:28:22;;;;;;;8.13;1.98;;;;;;;4.62;100.00;99043.53;5072620;28;20027;-75
2023/01/16 04:30:47;;;;;;;9.43;2.28;;;;;;;4.60;100.00;99049.06;5073162;28;20088;-75
2023/01/16 04:33:13;;;;;;;11.02;2.03;;;;;;;4.60;100.00;99041.03;5078600;28;20027;-75
2023/01/16 04:35:38;;;;;;;8.23;1.85;;;;;;;4.53;100.00;99031.97;5070260;28;20800;-75
2023/01/16 04:38:04;;;;;;;6.78;2.05;;;;;;;4.84;100.00;99023.28;5083456;28;20384;-75
2023/01/16 04:40:29;;;;;;;14.50;2.42;;;;;;;4.67;100.00;99021.59;5085684;28;20189;-75
2023/01/16 04:42:55;;;;;;;14.35;2.50;;;;;;;4.76;100.00;99015.22;5065273;28;20484;-75
2023/01/16 04:45:21;;;;;;;7.60;1.50;;;;;;;4.74;100.00;99027.97;5097357;28;20062;-75
2023/01/16 04:47:49;;;;;;;8.77;2.20;;;;;;;4.75;100.00;99024.28;5065359;28;20421;-75
2023/01/16 04:50:14;;;;;;;9.80;2.45;;;;;;;4.84;100.00;99016.09;5073694;28;20388;-75
2023/01/16 04:52:41;;;;;;;10.77;2.13;;;;;;;4.74;100.00;99017.25;5084454;28;20027;-75
2023/01/16 04:55:07;;;;;;;8.95;2.20;;;;;;;4.78;100.00;99003.34;5072645;28;20583;-75
2023/01/16 04:57:32;;;;;;;10.70;1.67;;;;;;;4.72;100.00;99003.19;5073691;28;20043;-75
2023/01/16 04:59:58;;;;;;;10.52;1.75;;;;;;;4.62;100.00;98998.81;5075864;28;20020;-75
2023/01/16 05:02:23;;;;;;;10.23;2.03;;;;;;;4.73;100.00;98994.13;5071288;28;20023;-75
2023/01/16 05:04:49;;;;;;;11.15;2.45;;;;;;;4.85;100.00;99000.84;5081051;28;20044;-75
2023/01/16 05:07:14;;;;;;;6.55;1.55;;;;;;;4.78;100.00;98998.00;5089573;28;20035;-76
2023/01/16 05:09:41;;;;;;;11.00;1.70;;;;;;;4.89;100.00;98994.16;5086827;28;20036;-75
2023/01/16 05:12:07;;;;;;;6.30;1.60;;;;;;;4.79;100.00;99004.19;5077534;28;20023;-75
2023/01/16 05:14:33;;;;;;;14.70;1.95;;;;;;;4.92;100.00;98988.44;5066864;28;20104;-75
2023/01/16 05:16:59;;;;;;;13.23;3.60;;;;;;;4.83;100.00;98984.09;5074993;28;20087;-75
2023/01/16 05:19:24;;;;;;;10.65;1.70;;;;;;;5.01;100.00;98986.56;5072495;28;20038;-76
2023/01/16 05:21:49;;;;;;;8.95;2.03;;;;;;;4.87;100.00;98980.06;5079054;28;20056;-75
2023/01/16 05:24:15;;;;;;;9.02;1.80;;;;;;;4.79;100.00;98988.09;5097336;28;20024;-76
2023/01/16 05:26:40;;;;;;;13.23;1.60;;;;;;;4.77;100.00;98982.06;5072441;28;20027;-75
2023/01/16 05:29:05;;;;;;;8.88;1.83;;;;;;;4.69;100.00;98976.69;5069729;28;20055;-75
2023/01/16 05:31:31;;;;;;;7.95;1.60;;;;;;;4.77;100.00;98974.88;5082369;28;20163;-76
2023/01/16 05:34:11;;;;;;;8.75;1.63;;;;;;;4.84;100.00;98980.41;5076642;28;20399;-75
2023/01/16 05:36:38;;;;;;;14.55;1.73;;;;;;;4.85;100.00;98972.19;5065831;28;20028;-75
2023/01/16 05:39:03;;;;;;;10.20;1.65;;;;;;;4.75;100.00;98965.31;5090812;28;20031;-75
2023/01/16 05:41:29;;;;;;;7.80;1.52;;;;;;;4.77;100.00;98974.03;5072512;28;20016;-75
2023/01/16 05:43:54;;;;;;;6.97;1.45;;;;;;;4.84;100.00;98959.78;5081932;28;20028;-75
2023/01/16 05:46:20;;;;;;;10.00;2.35;;;;;;;4.74;100.00;98959.09;5079009;28;20048;-75
2023/01/16 05:48:46;;;;;;;8.95;2.08;;;;;;;4.78;100.00;98954.25;5053314;28;20047;-75
2023/01/16 05:51:12;;;;;;;15.05;2.13;;;;;;;4.71;100.00;98958.63;5070184;28;20027;-76
2023/01/16 05:53:38;;;;;;;10.15;1.58;;;;;;;4.73;100.00;98956.59;5069823;28;20096;-76
2023/01/16 05:56:09;;;;;;;12.32;1.65;;;;;;;4.68;100.00;98948.22;5084921;28;20066;-76
2023/01/16 05:58:34;;;;;;;14.35;1.65;;;;;;;4.68;100.00;98953.59;5095170;28;20015;-75
2023/01/16 06:01:00;;;;;;;8.13;1.83;;;;;;;4.77;100.00;98957.94;5075796;28;20054;-75
2023/01/16 06:03:25;;;;;;;9.20;2.17;;;;;;;4.79;100.00;98951.41;5074871;28;20020;-75
2023/01/16 06:05:51;;;;;;;13.55;2.20;;;;;;;4.67;100.00;98942.03;5086325;28;20019;-75
2023/01/16 06:08:16;;;;;;;5.47;1.73;;;;;;;4.50;100.00;98938.53;5078709;28;20020;-76
2023/01/16 06:10:44;;;;;;;11.90;1.85;;;;;;;4.57;100.00;98930.66;5099515;28;20516;-75
2023/01/16 06:13:09;;;;;;;11.23;1.88;;;;;;;4.52;100.00;98928.47;5082411;28;20510;-75
2023/01/16 06:15:34;;;;;;;8.40;1.25;;;;;;;4.60;100.00;98931.13;5103206;28;20038;-76
2023/01/16 06:18:00;;;;;;;4.78;1.33;;;;;;;4.56;100.00;98924.47;5086364;28;20031;-76
2023/01/16 06:20:25;;;;;;;5.13;1.50;;;;;;;4.57;100.00;98928.81;5078985;28;20088;-76
2023/01/16 06:22:52;;;;;;;6.63;1.52;;;;;;;4.47;100.00;98919.25;5084258;28;20027;-77
2023/01/16 06:25:19;;;;;;;6.35;1.60;;;;;;;4.56;100.00;98928.94;5078659;28;20049;-75
2023/01/16 06:27:48;;;;;;;9.48;1.75;;;;;;;4.41;100.00;98926.09;5073798;28;20051;-75
2023/01/16 06:30:14;;;;;;;7.45;1.80;;;;;;;4.34;100.00;98914.38;5096837;28;20063;-76
2023/01/16 06:32:40;;;;;;;6.65;1.52;;;;;;;4.24;100.00;98919.09;5073912;28;20067;-75
2023/01/16 06:35:05;;;;;;;6.10;1.60;;;;;;;4.44;100.00;98908.88;5067778;28;20024;-76
2023/01/16 06:37:31;;;;;;;10.90;2.22;;;;;;;4.37;100.00;98914.06;5074324;28;20036;-76
2023/01/16 06:39:58;;;;;;;7.72;1.60;;;;;;;4.29;100.00;98908.69;5084804;28;20032;-76
2023/01/16 06:42:23;;;;;;;10.93;1.75;;;;;;;4.33;100.00;98902.00;5072329;28;20096;-76
2023/01/16 06:44:49;;;;;;;6.22;1.50;;;;;;;4.32;100.00;98889.63;5071177;28;20105;-76
2023/01/16 06:47:15;;;;;;;6.78;1.60;;;;;;;4.25;100.00;98899.31;5095636;28;20098;-76
2023/01/16 06:49:41;;;;;;;7.47;1.42;;;;;;;4.08;100.00;98888.59;5073683;28;20400;-76
2023/01/16 06:52:06;;;;;;;9.02;1.88;;;;;;;4.07;100.00;98897.63;5059650;28;20028;-76
2023/01/16 06:54:32;;;;;;;6.47;1.88;;;;;;;4.08;100.00;98898.47;5059396;28;20044;-76
2023/01/16 06:56:57;;;;;;;17.70;3.05;;;;;;;4.09;100.00;98890.25;5075389;28;20036;-76
2023/01/16 06:59:23;;;;;;;7.60;1.63;;;;;;;4.07;100.00;98886.91;5064838;28;20028;-76
2023/01/16 07:01:48;;;;;;;4.93;1.75;;;;;;;4.25;100.00;98885.94;5042530;28;20036;-76
2023/01/16 07:04:14;;;;;;;7.00;1.90;;;;;;;4.23;100.00;98885.25;5078796;28;20032;-76
2023/01/16 07:06:42;;;;;;;16.13;2.22;;;;;;;4.27;100.00;98870.53;5062180;28;20468;-76
2023/01/16 07:09:07;;;;;;;7.85;1.40;;;;;;;4.22;100.00;98879.06;5066830;28;20445;-76
2023/01/16 07:11:32;;;;;;;9.27;1.88;;;;;;;4.13;100.00;98868.50;5075130;28;20036;-76
2023/01/16 07:24:58;;;;;;;12.18;2.38;;;;;;;4.02;100.00;98862.47;5084073;28;20020;-74
2023/01/16 07:27:24;;;;;;;8.35;1.63;;;;;;;3.99;100.00;98857.47;5071349;28;20518;-76
2023/01/16 07:29:50;;;;;;;6.93;1.60;;;;;;;4.08;100.00;98851.09;5055738;28;20033;-77
2023/01/16 07:32:16;;;;;;;8.05;1.70;;;;;;;4.06;100.00;98850.44;5055937;28;20024;-74
2023/01/16 07:34:41;;;;;;;7.00;1.60;;;;;;;4.06;100.00;98847.75;5063599;28;20028;-74
2023/01/16 07:37:10;;;;;;;5.35;1.83;;;;;;;4.08;100.00;98845.75;5081746;28;20031;-72
2023/01/16 07:39:38;;;;;;;8.57;1.63;;;;;;;3.96;100.00;98833.69;5071987;28;20108;-71
2023/01/16 07:42:05;;;;;;;9.45;2.38;;;;;;;3.90;100.00;98837.03;5060565;28;20031;-71
2023/01/16 07:44:30;;;;;;;8.98;2.05;;;;;;;3.86;100.00;98841.06;5104287;28;20030;-72
2023/01/16 07:46:56;;;;;;;8.50;1.88;;;;;;;3.82;100.00;98842.38;5082276;28;20048;-71
2023/01/16 07:49:21;;;;;;;6.65;1.48;;;;;;;3.89;100.00;98840.69;5080268;28;20024;-72
2023/01/16 07:51:47;;;;;;;7.25;1.50;;;;;;;3.85;100.00;98834.03;5087904;28;20031;-72
2023/01/16 07:54:13;;;;;;;5.88;1.50;;;;;;;3.83;100.00;98836.00;5063375;28;20020;-72
2023/01/16 07:56:39;;;;;;;4.97;1.45;;;;;;;3.86;100.00;98835.69;5050518;28;20032;-72
2023/01/16 07:59:05;;;;;;;8.30;1.73;;;;;;;3.79;100.00;98829.34;5057470;28;20034;-71
2023/01/16 08:01:30;;;;;;;13.80;2.47;;;;;;;3.81;100.00;98821.97;5070104;28;20042;-73
2023/01/16 08:03:55;;;;;;;14.65;2.13;;;;;;;3.77;100.00;98820.59;5088558;28;20025;-72
2023/01/16 08:06:21;;;;;;;9.77;1.60;;;;;;;3.75;100.00;98806.56;5078016;28;20028;-71
2023/01/16 08:08:46;;;;;;;7.25;1.85;;;;;;;3.81;100.00;98805.91;5079083;28;20034;-72
2023/01/16 08:13:56;;;;;;;11.05;2.00;;;;;;;3.74;100.00;98800.38;5090664;28;20043;-73
2023/01/16 08:16:23;;;;;;;6.90;1.58;;;;;;;3.93;100.00;98799.22;5091379;28;20048;-72
2023/01/16 08:18:48;;;;;;;5.22;1.73;;;;;;;3.82;100.00;98799.53;5079322;28;20553;-72
2023/01/16 08:21:16;;;;;;;5.80;1.88;;;;;;;3.81;100.00;98800.56;5068902;28;20066;-73
2023/01/16 08:23:42;;;;;;;12.07;2.03;;;;;;;3.94;100.00;98795.53;5075030;28;20032;-72
2023/01/16 08:26:08;;;;;;;9.25;1.85;;;;;;;3.88;100.00;98796.22;5074497;28;20011;-72
2023/01/16 08:28:33;;;;;;;8.55;2.03;;;;;;;3.93;100.00;98793.03;5102357;28;20026;-72
2023/01/16 08:31:08;;;;;;;9.60;2.38;;;;;;;4.04;100.00;98790.00;5103235;28;20146;-72
2023/01/16 08:33:35;;;;;;;11.52;2.33;;;;;;;3.90;100.00;98794.19;5071142;28;20381;-73
2023/01/16 08:36:02;;;;;;;3.72;1.52;;;;;;;3.84;100.00;98786.00;5075225;28;20031;-72
2023/01/16 08:38:28;;;;;;;9.07;1.80;;;;;;;3.93;100.00;98788.53;5071816;28;20024;-72
2023/01/16 08:40:53;;;;;;;9.52;1.83;;;;;;;4.01;100.00;98775.13;5074153;28;20028;-72
2023/01/16 08:51:34;;;;;;;8.88;2.00;;;;;;;4.29;100.00;98761.38;5091080;28;20035;-72
2023/01/16 08:53:59;;;;;;;7.22;1.85;;;;;;;4.33;100.00;98757.34;5094173;28;20131;-71
2023/01/16 08:56:25;;;;;;;7.60;2.17;;;;;;;4.49;100.00;98757.31;5073298;28;20055;-72
2023/01/16 08:58:50;;;;;;;8.30;1.75;;;;;;;4.28;100.00;98749.81;5069286;28;20059;-72
2023/01/16 09:01:16;;;;;;;9.07;1.73;;;;;;;4.32;100.00;98744.97;5068345;28;20268;-73
2023/01/16 09:03:42;;;;;;;4.28;1.77;;;;;;;4.24;100.00;98737.78;5083955;28;20062;-73
2023/01/16 09:06:07;;;;;;;8.35;1.83;;;;;;;4.42;100.00;98734.88;5077453;28;20074;-70
2023/01/16 09:08:33;;;;;;;4.30;2.10;;;;;;;4.38;100.00;98730.91;5078210;28;20024;-72
2023/01/16 09:13:48;;;;;;;9.73;2.00;;;;;;;4.40;100.00;98731.56;5096416;28;20027;-72
2023/01/16 09:16:19;;;;;;;13.13;2.03;;;;;;;4.30;100.00;98725.53;5077691;28;20057;-72
2023/01/16 09:18:45;;;;;;;7.05;1.52;;;;;;;4.31;100.00;98721.88;5080330;28;20032;-72
2023/01/16 09:21:10;;;;;;;7.20;1.98;;;;;;;4.28;100.00;98711.50;5076415;28;20027;-71
2023/01/16 09:23:36;;;;;;;8.77;1.85;;;;;;;4.21;100.00;98716.69;5069939;28;20039;-71
2023/01/16 09:26:01;;;;;;;5.03;1.23;;;;;;;4.22;100.00;98717.53;5073344;28;20027;-72
2023/01/16 09:28:26;;;;;;;9.07;2.15;;;;;;;4.30;100.00;98698.75;5090660;28;20023;-71
2023/01/16 09:30:52;;;;;;;10.07;2.30;;;;;;;4.38;100.00;98701.44;5099844;28;20062;-71
2023/01/16 09:33:17;;;;;;;8.23;2.13;;;;;;;4.50;100.00;98694.69;5068296;28;20484;-71
2023/01/16 09:35:42;;;;;;;6.75;1.48;;;;;;;4.39;100.00;98676.31;5095507;28;20087;-71
2023/01/16 09:38:08;;;;;;;5.88;2.13;;;;;;;4.43;100.00;98693.69;5099088;28;20027;-72
2023/01/16 09:40:33;;;;;;;6.13;2.40;;;;;;;4.37;100.00;98691.72;5078560;28;20050;-72
2023/01/16 09:46:04;;;;;;;8.80;2.17;;;;;;;4.45;100.00;98675.63;5098440;28;20030;-71
2023/01/16 09:48:40;;;;;;;7.53;2.30;;;;;;;4.55;100.00;98665.50;5072497;28;20035;-71
2023/01/16 09:51:14;;;;;;;9.55;2.58;;;;;;;4.47;100.00;98657.53;5087978;28;20052;-71
2023/01/16 10:00:04;;;;;;;11.40;2.47;;;;;;;4.80;100.00;98654.69;5094312;28;20023;-71
2023/01/16 10:02:34;;;;;;;7.10;2.70;;;;;;;4.70;100.00;98646.03;5085856;28;20107;-72
2023/01/16 10:05:04;;;;;;;5.90;2.00;;;;;;;4.55;100.00;98644.06;5092159;28;20024;-71
2023/01/16 10:07:38;;;;;;;5.82;1.77;;;;;;;4.80;100.00;98639.44;5087926;28;20027;-71
2023/01/16 10:10:10;;;;;;;8.25;1.90;;;;;;;4.84;100.00;98631.88;5072349;28;20091;-71
2023/01/16 10:12:39;;;;;;;10.95;1.88;;;;;;;4.70;100.00;98635.31;5070438;28;20361;-71
2023/01/16 10:15:14;;;;;;;5.00;1.50;;;;;;;4.79;100.00;98634.25;5102642;28;20023;-71
2023/01/16 10:17:52;;;;;;;13.82;2.83;;;;;;;4.80;100.00;98625.19;5089826;28;20137;-71
2023/01/16 10:20:26;;;;;;;5.43;1.52;;;;;;;4.59;100.00;98623.97;5096897;28;20085;-71
2023/01/16 10:23:15;;;;;;;10.25;2.35;;;;;;;4.65;100.00;98610.88;5075825;28;20055;-71
2023/01/16 10:25:50;;;;;;;4.40;1.42;;;;;;;4.79;100.00;98602.09;5059066;28;20119;-71
2023/01/16 10:28:57;;;;;;;7.03;1.23;;;;;;;4.75;100.00;98595.41;5078785;28;20020;-72
2023/01/16 10:31:36;;;;;;;4.07;1.77;;;;;;;4.83;100.00;98603.41;5072142;28;20047;-72
2023/01/16 10:34:03;;;;;;;6.22;1.42;;;;;;;4.81;100.00;98600.06;5098512;28;20082;-72
2023/01/16 10:36:34;;;;;;;8.88;2.33;;;;;;;4.86;100.00;98592.31;5091930;28;20086;-72
2023/01/16 10:39:00;;;;;;;7.53;2.53;;;;;;;4.87;100.00;98583.25;5087613;28;20023;-72
2023/01/16 10:50:04;;;;;;;11.07;2.40;;;;;;;5.23;100.00;98566.59;5100580;28;20058;-75
2023/01/16 10:52:31;;;;;;;8.65;2.20;;;;;;;5.21;100.00;98565.91;5076861;28;20031;-74
2023/01/16 10:54:58;;;;;;;10.43;2.22;;;;;;;5.18;100.00;98554.53;5080579;28;20023;-74
2023/01/16 10:57:24;;;;;;;6.38;2.03;;;;;;;5.40;100.00;98552.81;5075922;28;20037;-74
2023/01/16 10:59:54;;;;;;;8.52;1.83;;;;;;;5.53;100.00;98536.09;5072233;28;20063;-74
2023/01/16 11:02:30;;;;;;;7.78;2.00;;;;;;;5.59;100.00;98527.31;5069017;28;20061;-74
2023/01/16 11:04:56;;;;;;;6.82;2.00;;;;;;;5.51;100.00;98526.56;5084950;28;20050;-74
2023/01/16 11:07:25;;;;;;;13.38;1.67;;;;;;;5.58;100.00;98522.97;5072370;28;20136;-75
2023/01/16 11:09:51;;;;;;;8.02;1.73;;;;;;;5.61;100.00;98506.50;5078970;28;20023;-75
2023/01/16 11:18:30;;;;;;;5.80;1.90;;;;;;;5.81;100.00;98473.72;5098619;28;20055;-74
2023/01/16 11:21:00;;;;;;;9.23;2.50;;;;;;;5.91;100.00;98468.91;5072988;28;20031;-75
2023/01/16 11:23:33;;;;;;;8.93;2.38;;;;;;;5.87;100.00;98473.00;5067410;28;20022;-76
2023/01/16 11:25:59;;;;;;;6.47;2.47;;;;;;;5.82;100.00;98448.53;5084056;28;20019;-75
2023/01/16 11:28:27;;;;;;;8.68;2.13;;;;;;;5.76;100.00;98439.38;5089781;28;20078;-74
2023/01/16 11:31:17;;;;;;;4.20;1.65;;;;;;;5.63;100.00;98445.41;5074715;28;20011;-74
2023/01/16 11:33:57;;;;;;;7.25;1.55;;;;;;;5.66;100.00;98430.78;5068827;28;20024;-74
2023/01/16 11:36:26;;;;;;;4.40;1.45;;;;;;;5.69;100.00;98419.69;5085368;28;20138;-74
2023/01/16 11:38:52;;;;;;;6.55;1.67;;;;;;;5.69;100.00;98412.47;5069474;28;20031;-74
2023/01/16 11:41:31;;;;;;;7.72;2.28;;;;;;;5.72;100.00;98401.31;5068829;28;20040;-76
2023/01/16 11:47:14;;;;;;;8.18;2.30;;;;;;;6.02;100.00;98379.81;5090791;28;20035;-74
2023/01/16 11:49:44;;;;;;;4.07;1.45;;;;;;;5.87;100.00;98370.97;5075783;28;20032;-74
2023/01/16 11:52:28;;;;;;;2.92;1.60;;;;;;;5.77;100.00;98359.69;5075463;28;20019;-74
2023/01/16 11:55:02;;;;;;;7.00;1.80;;;;;;;5.96;100.00;98359.09;5068287;28;20028;-74
2023/01/16 11:57:33;;;;;;;8.13;1.80;;;;;;;5.96;100.00;98353.72;5084436;28;20037;-74
2023/01/16 12:00:09;;;;;;;5.32;1.75;;;;;;;5.93;100.00;98343.34;5077887;28;20031;-74
2023/01/16 12:03:03;;;;;;;9.07;1.95;;;;;;;6.11;100.00;98335.69;5075464;28;20024;-74
2023/01/16 12:05:53;;;;;;;4.78;1.52;;;;;;;6.09;100.00;98343.13;5069488;28;20050;-74
2023/01/16 12:08:38;;;;;;;7.55;1.80;;;;;;;6.08;100.00;98319.97;5067952;28;20052;-73
2023/01/16 12:11:22;;;;;;;5.70;1.77;;;;;;;5.95;100.00;98317.16;5093047;28;20024;-74
2023/01/16 12:14:17;;;;;;;8.57;2.40;;;;;;;6.14;100.00;98303.09;5093083;28;20035;-74
2023/01/16 12:17:28;;;;;;;7.78;1.92;;;;;;;6.40;100.00;98290.91;5089934;28;20078;-73
2023/01/16 12:19:59;;;;;;;8.18;1.40;;;;;;;6.02;100.00;98275.09;5093277;28;20043;-74
2023/01/16 12:22:51;;;;;;;6.85;1.80;;;;;;;6.15;100.00;98272.50;5070378;28;20016;-74
2023/01/16 12:25:41;;;;;;;6.68;1.52;;;;;;;6.32;100.00;98266.84;5081444;28;20027;-74
2023/01/16 12:28:37;;;;;;;5.03;1.55;;;;;;;6.09;100.00;98257.16;5093527;28;20089;-74
2023/01/16 12:31:16;;;;;;;9.45;1.55;;;;;;;6.03;100.00;98247.19;5103287;28;20122;-73
2023/01/16 12:33:57;;;;;;;3.03;1.27;;;;;;;6.07;100.00;98243.13;5077600;28;20104;-73
2023/01/16 12:36:32;;;;;;;6.18;1.50;;;;;;;6.05;100.00;98242.44;5081482;28;20028;-73
2023/01/16 12:39:09;;;;;;;10.23;1.83;;;;;;;6.05;100.00;98237.09;5075591;28;20039;-74
2023/01/16 12:44:57;;;;;;;4.35;1.63;;;;;;;5.88;100.00;98216.88;5096241;28;20023;-74